Oneiro — SVA3427 — position and weather

sailwx.info

Track history (hours):
 
Tides and Currents Weather Stations Pressure Air Temp Water Temp Dewpoint Dewpoint Depression Visibility Wind Speed Wind Dir Waves Ship Positions

Oneiro

Last reported at 2016-May-04 04:34 UTC. Time now 2016-May-04 05:56 UTC.
Position N 37°53' E 023°43'.

Length 53 m; draft 3 m.

Type: Pleasure craft. MMSI: 241024000.

Date/timePositionNaut miles runAvg speedWind from/ knotsBaromVisibWave heightAir tempDewpointWater temp
2016-May-04 04:34N 37°53' E 023°43'0 0.0
2016-May-04 03:33N 37°53' E 023°43'0 0.0
2016-May-04 02:33N 37°53' E 023°43'0 0.0
2016-May-04 01:33N 37°53' E 023°43'0 0.0
2016-May-04 00:34N 37°53' E 023°43'0 0.0
2016-May-03 23:34N 37°53' E 023°43'0 0.0
2016-May-03 22:34N 37°53' E 023°43'0 0.0
2016-May-03 21:34N 37°53' E 023°43'0 0.0
2016-May-03 20:33N 37°53' E 023°43'0 0.0
2016-May-03 19:34N 37°53' E 023°43'0 0.0
2016-May-03 18:34N 37°53' E 023°43'0 0.0
2016-May-03 17:34N 37°53' E 023°43'0 0.0
2016-May-03 16:33N 37°53' E 023°43'0 0.0
2016-May-03 15:34N 37°53' E 023°43'0 0.0
2016-May-03 14:34N 37°53' E 023°43'0 0.0
2016-May-03 13:34N 37°53' E 023°43'0 0.0
2016-May-03 12:33N 37°53' E 023°43'0 0.0
2016-May-03 11:34N 37°53' E 023°43'0 0.0
2016-May-03 10:34N 37°53' E 023°43'0 0.0
2016-May-03 09:34N 37°53' E 023°43'0 0.0
2016-May-03 08:34N 37°53' E 023°43'0 0.0
2016-May-03 07:34N 37°53' E 023°43'5 4.7
2016-May-03 06:34N 37°49' E 023°41'1512.1
2016-May-03 05:18N 37°34' E 023°34'911.5
2016-May-03 04:32N 37°25' E 023°32'96 2.1
2016-May-01 06:33N 36°48' E 025°23'1313.4
2016-May-01 05:33N 37°01' E 025°19'1313.3
2016-May-01 04:33N 37°14' E 025°19'1312.7
2016-May-01 03:33N 37°27' E 025°19'1 0.4
2016-May-01 01:23N 37°27' E 025°20'0 0.0
2016-May-01 00:06N 37°27' E 025°20'0 0.0
2016-Apr-30 23:33N 37°27' E 025°20'0 0.0
2016-Apr-30 22:20N 37°27' E 025°20'0 0.0
2016-Apr-30 21:32N 37°27' E 025°20'0 0.0
2016-Apr-30 20:32N 37°27' E 025°20'0 0.0
2016-Apr-30 19:32N 37°27' E 025°20'0 0.0
2016-Apr-30 18:32N 37°27' E 025°20'0 0.0
2016-Apr-30 17:32N 37°27' E 025°20'0 0.0
2016-Apr-30 16:29N 37°27' E 025°20'0 0.0
2016-Apr-30 15:33N 37°27' E 025°20'0 0.0
2016-Apr-30 14:32N 37°27' E 025°20'0 0.0
2016-Apr-30 13:32N 37°27' E 025°20'0 0.0
2016-Apr-30 12:24N 37°27' E 025°20'0 0.0
2016-Apr-30 11:29N 37°27' E 025°20'0 0.0
2016-Apr-30 10:32N 37°27' E 025°20'0 0.0
2016-Apr-30 09:30N 37°27' E 025°20'0 0.0
2016-Apr-30 08:32N 37°27' E 025°20'0 0.0
2016-Apr-30 07:32N 37°27' E 025°20'0 0.0
2016-Apr-30 06:30N 37°27' E 025°20'1011.0
2016-Apr-30 05:33N 37°32' E 025°08'4911.0
2016-Apr-30 01:08N 37°38' E 024°07'811.7
2016-Apr-30 00:29N 37°38' E 023°57'1111.8
2016-Apr-29 23:33N 37°46' E 023°48'8 7.5
2016-Apr-29 22:31N 37°53' E 023°43'0 0.0
2016-Apr-29 21:31N 37°53' E 023°43'0 0.0
2016-Apr-29 20:31N 37°53' E 023°43'0 0.0
2016-Apr-29 19:28N 37°53' E 023°43'0 0.0
2016-Apr-29 18:31N 37°53' E 023°43'0 0.0
2016-Apr-29 17:31N 37°53' E 023°43'0 0.0
2016-Apr-29 16:31N 37°53' E 023°43'0 0.0
2016-Apr-29 15:31N 37°53' E 023°43'0 0.0
2016-Apr-29 14:31N 37°53' E 023°43'0 0.0
2016-Apr-29 13:31N 37°53' E 023°43'0 0.0
2016-Apr-29 12:31N 37°53' E 023°43'0 0.0
2016-Apr-29 11:31N 37°53' E 023°43'0 0.0
2016-Apr-29 10:31N 37°53' E 023°43'0 0.0
2016-Apr-29 09:31N 37°53' E 023°43'0 0.0
2016-Apr-29 08:31N 37°53' E 023°43'0 0.0
2016-Apr-29 07:31N 37°53' E 023°43'0 0.0
2016-Apr-29 06:31N 37°53' E 023°43'0 0.0
2016-Apr-29 05:31N 37°53' E 023°43'0 0.0
2016-Apr-29 04:31N 37°53' E 023°43'0 0.0
2016-Apr-29 03:31N 37°53' E 023°43'0 0.0
2016-Apr-29 02:31N 37°53' E 023°43'0 0.0
2016-Apr-29 01:31N 37°53' E 023°43'0 0.0
2016-Apr-29 00:31N 37°53' E 023°43'0 0.0
2016-Apr-28 23:31N 37°53' E 023°43'0 0.0
2016-Apr-28 22:31N 37°53' E 023°43'0 0.0
2016-Apr-28 21:31N 37°53' E 023°43'0 0.0
2016-Apr-28 20:31N 37°53' E 023°43'0 0.0
2016-Apr-28 19:28N 37°53' E 023°43'0 0.0
2016-Apr-28 18:31N 37°53' E 023°43'0 0.0
2016-Apr-28 17:31N 37°53' E 023°43'0 0.0
2016-Apr-28 16:28N 37°53' E 023°43'0 0.0
2016-Apr-28 15:31N 37°53' E 023°43'0 0.0
2016-Apr-28 14:31N 37°53' E 023°43'0 0.0
2016-Apr-28 13:31N 37°53' E 023°43'0 0.0
2016-Apr-28 12:31N 37°53' E 023°43'0 0.0
2016-Apr-28 11:31N 37°53' E 023°43'0 0.0
2016-Apr-28 10:31N 37°53' E 023°43'0 0.0
2016-Apr-28 09:31N 37°53' E 023°43'0 0.0
2016-Apr-28 08:31N 37°53' E 023°43'0 0.0
2016-Apr-28 07:31N 37°53' E 023°43'0 0.0
2016-Apr-28 06:31N 37°53' E 023°43'0 0.0
2016-Apr-28 05:31N 37°53' E 023°43'0 0.0
2016-Apr-28 04:31N 37°53' E 023°43'0 0.0
2016-Apr-28 03:31N 37°53' E 023°43'0 0.0
2016-Apr-28 02:31N 37°53' E 023°43'0 0.0
2016-Apr-28 01:31N 37°53' E 023°43'0 0.0
2016-Apr-28 00:31N 37°53' E 023°43'0 0.0
2016-Apr-27 23:31N 37°53' E 023°43'0 0.0
2016-Apr-27 22:31N 37°53' E 023°43'0 0.0
2016-Apr-27 21:31N 37°53' E 023°43'0 0.0
2016-Apr-27 20:31N 37°53' E 023°43'0 0.0
2016-Apr-27 19:31N 37°53' E 023°43'0 0.0
2016-Apr-27 18:31N 37°53' E 023°43'0 0.0
2016-Apr-27 17:31N 37°53' E 023°43'0 0.0
2016-Apr-27 16:31N 37°53' E 023°43'0 0.0
2016-Apr-27 15:31N 37°53' E 023°43'0 0.0
2016-Apr-27 14:31N 37°53' E 023°43'0 0.0
2016-Apr-27 13:31N 37°53' E 023°43'0 0.0
2016-Apr-27 12:31N 37°53' E 023°43'0 0.0
2016-Apr-27 11:31N 37°53' E 023°43'0 0.0
2016-Apr-27 10:31N 37°53' E 023°43'0 0.0
2016-Apr-27 09:31N 37°53' E 023°43'0 0.0
2016-Apr-27 08:31N 37°53' E 023°43'0 0.0
2016-Apr-27 07:31N 37°53' E 023°43'0 0.0
2016-Apr-27 06:31N 37°53' E 023°43'0 0.0
2016-Apr-27 05:31N 37°53' E 023°43'0 0.0
2016-Apr-27 04:31N 37°53' E 023°43'0 0.0
2016-Apr-27 03:31N 37°53' E 023°43'0 0.0
2016-Apr-27 02:31N 37°53' E 023°43'0 0.0
2016-Apr-27 01:31N 37°53' E 023°43'0 0.0
2016-Apr-27 00:31N 37°53' E 023°43'0 0.0
2016-Apr-26 23:31N 37°53' E 023°43'0 0.0
2016-Apr-26 22:31N 37°53' E 023°43'0 0.0
2016-Apr-26 21:31N 37°53' E 023°43'0 0.0
2016-Apr-26 20:31N 37°53' E 023°43'0 0.0
2016-Apr-26 19:31N 37°53' E 023°43'0 0.0
2016-Apr-26 18:31N 37°53' E 023°43'0 0.0
2016-Apr-26 17:31N 37°53' E 023°43'0 0.0
2016-Apr-26 16:31N 37°53' E 023°43'0 0.0
2016-Apr-26 15:31N 37°53' E 023°43'0 0.0
2016-Apr-26 14:31N 37°53' E 023°43'0 0.0
2016-Apr-26 13:31N 37°53' E 023°43'0 0.0
2016-Apr-26 12:31N 37°53' E 023°43'0 0.0
2016-Apr-26 11:31N 37°53' E 023°43'0 0.0
2016-Apr-26 10:31N 37°53' E 023°43'0 0.0
2016-Apr-26 09:31N 37°53' E 023°43'0 0.0
2016-Apr-26 08:31N 37°53' E 023°43'0 0.0
2016-Apr-26 07:31N 37°53' E 023°43'0 0.0
2016-Apr-26 06:31N 37°53' E 023°43'0 0.0
2016-Apr-26 05:31N 37°53' E 023°43'0 0.0
2016-Apr-26 04:31N 37°53' E 023°43'0 0.0
2016-Apr-26 03:31N 37°53' E 023°43'0 0.0
2016-Apr-26 02:31N 37°53' E 023°43'0 0.0
2016-Apr-26 01:31N 37°53' E 023°43'0 0.0
2016-Apr-26 00:31N 37°53' E 023°43'0 0.0
2016-Apr-25 23:31N 37°53' E 023°43'0 0.0
2016-Apr-25 22:31N 37°53' E 023°43'0 0.0
2016-Apr-25 21:31N 37°53' E 023°43'0 0.0
2016-Apr-25 20:31N 37°53' E 023°43'0 0.0
2016-Apr-25 19:31N 37°53' E 023°43'0 0.0
2016-Apr-25 18:28N 37°53' E 023°43'0 0.0
2016-Apr-25 17:31N 37°53' E 023°43'0 0.0
2016-Apr-25 16:28N 37°53' E 023°43'0 0.0
2016-Apr-25 15:31N 37°53' E 023°43'0 0.0
2016-Apr-25 14:31N 37°53' E 023°43'0 0.0
2016-Apr-25 13:33N 37°53' E 023°43'0 0.0
2016-Apr-25 12:32N 37°53' E 023°43'0 0.0
2016-Apr-25 11:32N 37°53' E 023°43'0 0.0
2016-Apr-25 10:32N 37°53' E 023°43'0 0.0
2016-Apr-25 09:32N 37°53' E 023°43'0 0.0
2016-Apr-25 08:32N 37°53' E 023°43'0 0.0
2016-Apr-25 07:32N 37°53' E 023°43'0 0.0
2016-Apr-25 06:32N 37°53' E 023°43'0 0.0
2016-Apr-25 05:32N 37°53' E 023°43'0 0.0
2016-Apr-25 04:32N 37°53' E 023°43'0 0.0
2016-Apr-25 03:32N 37°53' E 023°43'0 0.0
2016-Apr-25 02:32N 37°53' E 023°43'0 0.0
2016-Apr-25 01:32N 37°53' E 023°43'0 0.0
2016-Apr-25 00:32N 37°53' E 023°43'0 0.0
2016-Apr-24 23:32N 37°53' E 023°43'0 0.0
2016-Apr-24 22:32N 37°53' E 023°43'0 0.0
2016-Apr-24 21:32N 37°53' E 023°43'0 0.0
2016-Apr-24 20:32N 37°53' E 023°43'0 0.0
2016-Apr-24 19:32N 37°53' E 023°43'0 0.0
2016-Apr-24 18:32N 37°53' E 023°43'0 0.0
2016-Apr-24 17:32N 37°53' E 023°43'0 0.0
2016-Apr-24 16:32N 37°53' E 023°43'0 0.0
2016-Apr-24 15:32N 37°53' E 023°43'0 0.0
2016-Apr-24 14:32N 37°53' E 023°43'0 0.0
2016-Apr-24 13:32N 37°53' E 023°43'0 0.0
2016-Apr-24 12:32N 37°53' E 023°43'0 0.0
2016-Apr-24 11:32N 37°53' E 023°43'0 0.0
2016-Apr-24 10:32N 37°53' E 023°43'0 0.0
2016-Apr-24 09:32N 37°53' E 023°43'0 0.0
2016-Apr-24 08:32N 37°53' E 023°43'0 0.0
2016-Apr-24 07:32N 37°53' E 023°43'0 0.0
2016-Apr-24 06:32N 37°53' E 023°43'0 0.0
2016-Apr-24 05:32N 37°53' E 023°43'  
Track history (hours):
 
Tides and Currents Weather Stations Pressure Air Temp Water Temp Dewpoint Dewpoint Depression Visibility Wind Speed Wind Dir Waves Ship Positions

Oneiro

Last reported at 2016-May-04 04:34 UTC. Time now 2016-May-04 05:56 UTC.
Position N 37°53' E 023°43'.

Length 53 m; draft 3 m.

Type: Pleasure craft. MMSI: 241024000.

Date/timePositionNaut miles runAvg speedWind from/ knotsBaromVisibWave heightAir tempDewpointWater temp
2016-May-04 04:34N 37°53' E 023°43'0 0.0
2016-May-04 03:33N 37°53' E 023°43'0 0.0
2016-May-04 02:33N 37°53' E 023°43'0 0.0
2016-May-04 01:33N 37°53' E 023°43'0 0.0
2016-May-04 00:34N 37°53' E 023°43'0 0.0
2016-May-03 23:34N 37°53' E 023°43'0 0.0
2016-May-03 22:34N 37°53' E 023°43'0 0.0
2016-May-03 21:34N 37°53' E 023°43'0 0.0
2016-May-03 20:33N 37°53' E 023°43'0 0.0
2016-May-03 19:34N 37°53' E 023°43'0 0.0
2016-May-03 18:34N 37°53' E 023°43'0 0.0
2016-May-03 17:34N 37°53' E 023°43'0 0.0
2016-May-03 16:33N 37°53' E 023°43'0 0.0
2016-May-03 15:34N 37°53' E 023°43'0 0.0
2016-May-03 14:34N 37°53' E 023°43'0 0.0
2016-May-03 13:34N 37°53' E 023°43'0 0.0
2016-May-03 12:33N 37°53' E 023°43'0 0.0
2016-May-03 11:34N 37°53' E 023°43'0 0.0
2016-May-03 10:34N 37°53' E 023°43'0 0.0
2016-May-03 09:34N 37°53' E 023°43'0 0.0
2016-May-03 08:34N 37°53' E 023°43'0 0.0
2016-May-03 07:34N 37°53' E 023°43'5 4.7
2016-May-03 06:34N 37°49' E 023°41'1512.1
2016-May-03 05:18N 37°34' E 023°34'911.5
2016-May-03 04:32N 37°25' E 023°32'96 2.1
2016-May-01 06:33N 36°48' E 025°23'1313.4
2016-May-01 05:33N 37°01' E 025°19'1313.3
2016-May-01 04:33N 37°14' E 025°19'1312.7
2016-May-01 03:33N 37°27' E 025°19'1 0.4
2016-May-01 01:23N 37°27' E 025°20'0 0.0
2016-May-01 00:06N 37°27' E 025°20'0 0.0
2016-Apr-30 23:33N 37°27' E 025°20'0 0.0
2016-Apr-30 22:20N 37°27' E 025°20'0 0.0
2016-Apr-30 21:32N 37°27' E 025°20'0 0.0
2016-Apr-30 20:32N 37°27' E 025°20'0 0.0
2016-Apr-30 19:32N 37°27' E 025°20'0 0.0
2016-Apr-30 18:32N 37°27' E 025°20'0 0.0
2016-Apr-30 17:32N 37°27' E 025°20'0 0.0
2016-Apr-30 16:29N 37°27' E 025°20'0 0.0
2016-Apr-30 15:33N 37°27' E 025°20'0 0.0
2016-Apr-30 14:32N 37°27' E 025°20'0 0.0
2016-Apr-30 13:32N 37°27' E 025°20'0 0.0
2016-Apr-30 12:24N 37°27' E 025°20'0 0.0
2016-Apr-30 11:29N 37°27' E 025°20'0 0.0
2016-Apr-30 10:32N 37°27' E 025°20'0 0.0
2016-Apr-30 09:30N 37°27' E 025°20'0 0.0
2016-Apr-30 08:32N 37°27' E 025°20'0 0.0
2016-Apr-30 07:32N 37°27' E 025°20'0 0.0
2016-Apr-30 06:30N 37°27' E 025°20'1011.0
2016-Apr-30 05:33N 37°32' E 025°08'4911.0
2016-Apr-30 01:08N 37°38' E 024°07'811.7
2016-Apr-30 00:29N 37°38' E 023°57'1111.8
2016-Apr-29 23:33N 37°46' E 023°48'8 7.5
2016-Apr-29 22:31N 37°53' E 023°43'0 0.0
2016-Apr-29 21:31N 37°53' E 023°43'0 0.0
2016-Apr-29 20:31N 37°53' E 023°43'0 0.0
2016-Apr-29 19:28N 37°53' E 023°43'0 0.0
2016-Apr-29 18:31N 37°53' E 023°43'0 0.0
2016-Apr-29 17:31N 37°53' E 023°43'0 0.0
2016-Apr-29 16:31N 37°53' E 023°43'0 0.0
2016-Apr-29 15:31N 37°53' E 023°43'0 0.0
2016-Apr-29 14:31N 37°53' E 023°43'0 0.0
2016-Apr-29 13:31N 37°53' E 023°43'0 0.0
2016-Apr-29 12:31N 37°53' E 023°43'0 0.0
2016-Apr-29 11:31N 37°53' E 023°43'0 0.0
2016-Apr-29 10:31N 37°53' E 023°43'0 0.0
2016-Apr-29 09:31N 37°53' E 023°43'0 0.0
2016-Apr-29 08:31N 37°53' E 023°43'0 0.0
2016-Apr-29 07:31N 37°53' E 023°43'0 0.0
2016-Apr-29 06:31N 37°53' E 023°43'0 0.0
2016-Apr-29 05:31N 37°53' E 023°43'0 0.0
2016-Apr-29 04:31N 37°53' E 023°43'0 0.0
2016-Apr-29 03:31N 37°53' E 023°43'0 0.0
2016-Apr-29 02:31N 37°53' E 023°43'0 0.0
2016-Apr-29 01:31N 37°53' E 023°43'0 0.0
2016-Apr-29 00:31N 37°53' E 023°43'0 0.0
2016-Apr-28 23:31N 37°53' E 023°43'0 0.0
2016-Apr-28 22:31N 37°53' E 023°43'0 0.0
2016-Apr-28 21:31N 37°53' E 023°43'0 0.0
2016-Apr-28 20:31N 37°53' E 023°43'0 0.0
2016-Apr-28 19:28N 37°53' E 023°43'0 0.0
2016-Apr-28 18:31N 37°53' E 023°43'0 0.0
2016-Apr-28 17:31N 37°53' E 023°43'0 0.0
2016-Apr-28 16:28N 37°53' E 023°43'0 0.0
2016-Apr-28 15:31N 37°53' E 023°43'0 0.0
2016-Apr-28 14:31N 37°53' E 023°43'0 0.0
2016-Apr-28 13:31N 37°53' E 023°43'0 0.0
2016-Apr-28 12:31N 37°53' E 023°43'0 0.0
2016-Apr-28 11:31N 37°53' E 023°43'0 0.0
2016-Apr-28 10:31N 37°53' E 023°43'0 0.0
2016-Apr-28 09:31N 37°53' E 023°43'0 0.0
2016-Apr-28 08:31N 37°53' E 023°43'0 0.0
2016-Apr-28 07:31N 37°53' E 023°43'0 0.0
2016-Apr-28 06:31N 37°53' E 023°43'0 0.0
2016-Apr-28 05:31N 37°53' E 023°43'0 0.0
2016-Apr-28 04:31N 37°53' E 023°43'0 0.0
2016-Apr-28 03:31N 37°53' E 023°43'0 0.0
2016-Apr-28 02:31N 37°53' E 023°43'0 0.0
2016-Apr-28 01:31N 37°53' E 023°43'0 0.0
2016-Apr-28 00:31N 37°53' E 023°43'0 0.0
2016-Apr-27 23:31N 37°53' E 023°43'0 0.0
2016-Apr-27 22:31N 37°53' E 023°43'0 0.0
2016-Apr-27 21:31N 37°53' E 023°43'0 0.0
2016-Apr-27 20:31N 37°53' E 023°43'0 0.0
2016-Apr-27 19:31N 37°53' E 023°43'0 0.0
2016-Apr-27 18:31N 37°53' E 023°43'0 0.0
2016-Apr-27 17:31N 37°53' E 023°43'0 0.0
2016-Apr-27 16:31N 37°53' E 023°43'0 0.0
2016-Apr-27 15:31N 37°53' E 023°43'0 0.0
2016-Apr-27 14:31N 37°53' E 023°43'0 0.0
2016-Apr-27 13:31N 37°53' E 023°43'0 0.0
2016-Apr-27 12:31N 37°53' E 023°43'0 0.0
2016-Apr-27 11:31N 37°53' E 023°43'0 0.0
2016-Apr-27 10:31N 37°53' E 023°43'0 0.0
2016-Apr-27 09:31N 37°53' E 023°43'0 0.0
2016-Apr-27 08:31N 37°53' E 023°43'0 0.0
2016-Apr-27 07:31N 37°53' E 023°43'0 0.0
2016-Apr-27 06:31N 37°53' E 023°43'0 0.0
2016-Apr-27 05:31N 37°53' E 023°43'0 0.0
2016-Apr-27 04:31N 37°53' E 023°43'0 0.0
2016-Apr-27 03:31N 37°53' E 023°43'0 0.0
2016-Apr-27 02:31N 37°53' E 023°43'0 0.0
2016-Apr-27 01:31N 37°53' E 023°43'0 0.0
2016-Apr-27 00:31N 37°53' E 023°43'0 0.0
2016-Apr-26 23:31N 37°53' E 023°43'0 0.0
2016-Apr-26 22:31N 37°53' E 023°43'0 0.0
2016-Apr-26 21:31N 37°53' E 023°43'0 0.0
2016-Apr-26 20:31N 37°53' E 023°43'0 0.0
2016-Apr-26 19:31N 37°53' E 023°43'0 0.0
2016-Apr-26 18:31N 37°53' E 023°43'0 0.0
2016-Apr-26 17:31N 37°53' E 023°43'0 0.0
2016-Apr-26 16:31N 37°53' E 023°43'0 0.0
2016-Apr-26 15:31N 37°53' E 023°43'0 0.0
2016-Apr-26 14:31N 37°53' E 023°43'0 0.0
2016-Apr-26 13:31N 37°53' E 023°43'0 0.0
2016-Apr-26 12:31N 37°53' E 023°43'0 0.0
2016-Apr-26 11:31N 37°53' E 023°43'0 0.0
2016-Apr-26 10:31N 37°53' E 023°43'0 0.0
2016-Apr-26 09:31N 37°53' E 023°43'0 0.0
2016-Apr-26 08:31N 37°53' E 023°43'0 0.0
2016-Apr-26 07:31N 37°53' E 023°43'0 0.0
2016-Apr-26 06:31N 37°53' E 023°43'0 0.0
2016-Apr-26 05:31N 37°53' E 023°43'0 0.0
2016-Apr-26 04:31N 37°53' E 023°43'0 0.0
2016-Apr-26 03:31N 37°53' E 023°43'0 0.0
2016-Apr-26 02:31N 37°53' E 023°43'0 0.0
2016-Apr-26 01:31N 37°53' E 023°43'0 0.0
2016-Apr-26 00:31N 37°53' E 023°43'0 0.0
2016-Apr-25 23:31N 37°53' E 023°43'0 0.0
2016-Apr-25 22:31N 37°53' E 023°43'0 0.0
2016-Apr-25 21:31N 37°53' E 023°43'0 0.0
2016-Apr-25 20:31N 37°53' E 023°43'0 0.0
2016-Apr-25 19:31N 37°53' E 023°43'0 0.0
2016-Apr-25 18:28N 37°53' E 023°43'0 0.0
2016-Apr-25 17:31N 37°53' E 023°43'0 0.0
2016-Apr-25 16:28N 37°53' E 023°43'0 0.0
2016-Apr-25 15:31N 37°53' E 023°43'0 0.0
2016-Apr-25 14:31N 37°53' E 023°43'0 0.0
2016-Apr-25 13:33N 37°53' E 023°43'0 0.0
2016-Apr-25 12:32N 37°53' E 023°43'0 0.0
2016-Apr-25 11:32N 37°53' E 023°43'0 0.0
2016-Apr-25 10:32N 37°53' E 023°43'0 0.0
2016-Apr-25 09:32N 37°53' E 023°43'0 0.0
2016-Apr-25 08:32N 37°53' E 023°43'0 0.0
2016-Apr-25 07:32N 37°53' E 023°43'0 0.0
2016-Apr-25 06:32N 37°53' E 023°43'0 0.0
2016-Apr-25 05:32N 37°53' E 023°43'0 0.0
2016-Apr-25 04:32N 37°53' E 023°43'0 0.0
2016-Apr-25 03:32N 37°53' E 023°43'0 0.0
2016-Apr-25 02:32N 37°53' E 023°43'0 0.0
2016-Apr-25 01:32N 37°53' E 023°43'0 0.0
2016-Apr-25 00:32N 37°53' E 023°43'0 0.0
2016-Apr-24 23:32N 37°53' E 023°43'0 0.0
2016-Apr-24 22:32N 37°53' E 023°43'0 0.0
2016-Apr-24 21:32N 37°53' E 023°43'0 0.0
2016-Apr-24 20:32N 37°53' E 023°43'0 0.0
2016-Apr-24 19:32N 37°53' E 023°43'0 0.0
2016-Apr-24 18:32N 37°53' E 023°43'0 0.0
2016-Apr-24 17:32N 37°53' E 023°43'0 0.0
2016-Apr-24 16:32N 37°53' E 023°43'0 0.0
2016-Apr-24 15:32N 37°53' E 023°43'0 0.0
2016-Apr-24 14:32N 37°53' E 023°43'0 0.0
2016-Apr-24 13:32N 37°53' E 023°43'0 0.0
2016-Apr-24 12:32N 37°53' E 023°43'0 0.0
2016-Apr-24 11:32N 37°53' E 023°43'0 0.0
2016-Apr-24 10:32N 37°53' E 023°43'0 0.0
2016-Apr-24 09:32N 37°53' E 023°43'0 0.0
2016-Apr-24 08:32N 37°53' E 023°43'0 0.0
2016-Apr-24 07:32N 37°53' E 023°43'0 0.0
2016-Apr-24 06:32N 37°53' E 023°43'0 0.0
2016-Apr-24 05:32N 37°53' E 023°43'  

Dump ship's entire track history